Terminal Aerodrome Forecast
Issued by NWS

Home | Current Version | Previous Version | Text Only | Print | Product List | Glossary On
Versions: 1 2 3 4 5 6 7 8 9 10 11 12
554
FTUS46 KHNX 241130
TAFMCE
TAF
KMCE 241130Z 2412/2512 VRB04KT P6SM SKC
      TEMPO 2421/2501 33010G20KT=

USA.gov is the U.S. government's official web portal to all federal, state and local government web resources and services.